Wetterdaten: aktuell Samstag, 19.01.2019 21:00
Datum Zeit Temp. A. Feuchte A. Luftdruck Regen Wind Richtung Richtung Sonnenschein ET UV Solar Taupunkt Windchill Windben
19.01.2019 21:00 -4,7 C 79 % 1018,1 hPa 0,0 l/m 0,0 km/h (0 Bft) S 179 0 min 0,000 mm 0,0 UV-I 0 W/m -7,8 C -4,7 C 0,0 km/h (0 Bft)
19.01.2019 20:00 -4,7 C 81 % 1018,0 hPa 0,0 l/m 0,0 km/h (0 Bft) S 179 0 min 0,000 mm 0,0 UV-I 0 W/m -7,4 C -4,7 C 0,0 km/h (0 Bft)
19.01.2019 19:00 -4,4 C 79 % 1018,2 hPa 0,0 l/m 0,0 km/h (0 Bft) S 179 0 min 0,000 mm 0,0 UV-I 0 W/m -7,5 C -4,4 C 0,0 km/h (0 Bft)
19.01.2019 18:00 -3,6 C 75 % 1018,5 hPa 0,0 l/m 0,0 km/h (0 Bft) S 179 0 min 0,000 mm 0,0 UV-I 0 W/m -7,4 C -3,6 C 0,0 km/h (0 Bft)
19.01.2019 17:00 -2,3 C 67 % 1018,7 hPa 0,0 l/m 0,0 km/h (0 Bft) S 179 5 min 0,000 mm 0,0 UV-I 0 W/m -7,6 C -2,3 C 0,0 km/h (0 Bft)
19.01.2019 16:00 -0,6 C 62 % 1019,0 hPa 0,0 l/m 0,0 km/h (0 Bft) S 179 0 min 0,026 mm 0,0 UV-I 18 W/m -7,0 C -0,6 C 0,0 km/h (0 Bft)
19.01.2019 15:00 0,4 C 59 % 1019,5 hPa 0,0 l/m 0,1 km/h (0 Bft) S 179 0 min 0,026 mm 0,0 UV-I 30 W/m -6,7 C 0,4 C 1,6 km/h (1 Bft)
19.01.2019 14:00 0,2 C 61 % 1019,9 hPa 0,0 l/m 0,0 km/h (0 Bft) S-SO 161 20 min 0,051 mm 0,0 UV-I 42 W/m -6,4 C 0,2 C 1,6 km/h (1 Bft)
19.01.2019 13:00 0,8 C 62 % 1020,4 hPa 0,0 l/m 0,8 km/h (0 Bft) O 88 60 min 0,101 mm 0,9 UV-I 299 W/m -5,6 C 0,8 C 8,0 km/h (2 Bft)
19.01.2019 12:00 -0,8 C 73 % 1020,9 hPa 0,0 l/m 0,1 km/h (0 Bft) SO 130 55 min 0,077 mm 1,0 UV-I 295 W/m -5,0 C -0,8 C 1,6 km/h (1 Bft)
19.01.2019 11:00 -1,3 C 74 % 1021,3 hPa 0,0 l/m 0,6 km/h (0 Bft) SW 217 60 min 0,025 mm 0,8 UV-I 248 W/m -5,3 C -1,3 C 3,2 km/h (1 Bft)
19.01.2019 10:00 -2,9 C 83 % 1021,4 hPa 0,0 l/m 0,0 km/h (0 Bft) SW 227 60 min 0,000 mm 0,7 UV-I 181 W/m -5,4 C -2,9 C 1,6 km/h (1 Bft)
19.01.2019 09:00 -4,8 C 88 % 1021,6 hPa 0,0 l/m 0,0 km/h (0 Bft) SW 225 5 min 0,000 mm 0,5 UV-I 58 W/m -6,5 C -4,8 C 1,6 km/h (1 Bft)
19.01.2019 08:00 -5,0 C 87 % 1021,3 hPa 0,0 l/m 0,0 km/h (0 Bft) N 0 0 min 0,000 mm 0,0 UV-I 0 W/m -6,8 C -5,0 C 0,0 km/h (0 Bft)
19.01.2019 07:00 -5,0 C 87 % 1021,3 hPa 0,0 l/m 0,0 km/h (0 Bft) SW 225 0 min 0,000 mm 0,0 UV-I 0 W/m -6,8 C -5,0 C 1,6 km/h (1 Bft)
19.01.2019 06:00 -4,7 C 86 % 1021,2 hPa 0,0 l/m 0,0 km/h (0 Bft) SW 225 0 min 0,000 mm 0,0 UV-I 0 W/m -6,7 C -4,7 C 3,2 km/h (1 Bft)
19.01.2019 05:00 -4,2 C 86 % 1021,3 hPa 0,0 l/m 0,0 km/h (0 Bft) SW 225 0 min 0,000 mm 0,0 UV-I 0 W/m -6,2 C -4,2 C 1,6 km/h (1 Bft)
19.01.2019 04:00 -3,8 C 85 % 1021,5 hPa 0,0 l/m 0,0 km/h (0 Bft) N 0 0 min 0,000 mm 0,0 UV-I 0 W/m -5,9 C -3,8 C 0,0 km/h (0 Bft)
19.01.2019 03:00 -3,2 C 84 % 1021,6 hPa 0,0 l/m 0,0 km/h (0 Bft) SW 225 0 min 0,000 mm 0,0 UV-I 0 W/m -5,5 C -3,2 C 1,6 km/h (1 Bft)
19.01.2019 02:00 -2,4 C 83 % 1021,7 hPa 0,0 l/m 1,6 km/h (1 Bft) S-SW 202 0 min 0,000 mm 0,0 UV-I 0 W/m -4,9 C -2,4 C 4,8 km/h (1 Bft)
19.01.2019 01:00 -2,5 C 84 % 1021,9 hPa 0,0 l/m 0,0 km/h (0 Bft) N 0 0 min 0,000 mm 0,0 UV-I 0 W/m -4,8 C -2,5 C 0,0 km/h (0 Bft)
19.01.2019 00:00 -3,0 C 83 % 1022,1 hPa 0,0 l/m 0,0 km/h (0 Bft) N 0 0 min 0,000 mm 0,0 UV-I 0 W/m -5,5 C -3,0 C 0,0 km/h (0 Bft)
_ Min-Zeit 07:50 14:55 20:00 - 00:00 - - - - - - 20:35 07:50 00:00
Minimum _ -5,1 C 58 % 1018,0 hPa - 0,0 km/h (0 Bft) - - - - - - -8,0 C -5,1 C 0,0 km/h (0 Bft)
_ Max-Zeit 13:20 08:35 00:00 00:00 13:50 - - 08:20 13:00 12:00 12:55 11:30 13:05 13:45
Maximum _ 1,1 C 88 % 1022,1 hPa 0,0 l/m 3,5 km/h
S-SO (1 Bft)
- - 5 min 0,101 mm 1,0 UV-I 302 W/m -4,6 C 1,0 C 11,3 km/h
S-SO (2 Bft)
Durchschnitt _ -2,8 C 77 % 1020,4 hPa #0,0 l/m 0,2 km/h (0 Bft) S-SO - #4:25 h #0,356 mm 0,8 UV-I 125 W/m -6,3 C -2,8 C 1,7 km/h (1 Bft)